Time,TemperatureF,DewpointF,PressureIn,WindDirection,WindDirectionDegrees,WindSpeedMPH,WindSpeedGustMPH,Humidity,HourlyPrecipIn,Conditions,Clouds,dailyrainin,SolarRadiationWatts/m^2,SoftwareType,DateUTC
2013-06-01 00:01:00,55.0,39.0,-100.00,NE,39,5.0,5.0,55,0.00,,,0.00,0.000000,,2013-06-01 07:01:00,
2013-06-01 00:11:00,55.0,39.0,-100.00,NE,39,5.0,5.0,55,0.00,,,0.00,0.000000,,2013-06-01 07:11:00,
2013-06-01 00:21:00,55.0,39.0,-100.00,NE,39,5.0,5.0,55,0.00,,,0.00,0.000000,,2013-06-01 07:21:00,
2013-06-01 00:52:00,51.0,40.0,-100.00,NE,46,4.0,6.0,67,0.00,,,0.00,0.000000,,2013-06-01 07:52:00,
2013-06-01 01:02:00,51.0,40.0,-100.00,NE,46,4.0,6.0,67,0.00,,,0.00,0.000000,,2013-06-01 08:02:00,
2013-06-01 01:11:00,51.0,40.0,-100.00,NE,46,4.0,6.0,67,0.00,,,0.00,0.000000,,2013-06-01 08:11:00,
2013-06-01 01:21:00,51.0,40.0,-100.00,NE,46,4.0,6.0,67,0.00,,,0.00,0.000000,,2013-06-01 08:21:00,
2013-06-01 01:52:00,51.0,39.0,-100.00,NE,43,4.0,6.0,63,0.00,,,0.00,0.000000,,2013-06-01 08:52:00,
2013-06-01 02:01:00,51.0,39.0,-100.00,NE,43,4.0,6.0,63,0.00,,,0.00,0.000000,,2013-06-01 09:01:00,
2013-06-01 02:12:00,51.0,39.0,-100.00,NE,43,4.0,6.0,63,0.00,,,0.00,0.000000,,2013-06-01 09:12:00,
2013-06-01 02:21:00,51.0,39.0,-100.00,NE,43,4.0,6.0,63,0.00,,,0.00,0.000000,,2013-06-01 09:21:00,
2013-06-01 02:53:00,50.0,39.0,-100.00,NNE,33,6.0,7.0,65,0.00,,,0.00,0.000000,,2013-06-01 09:53:00,
2013-06-01 03:02:00,50.0,39.0,-100.00,NNE,33,6.0,7.0,65,0.00,,,0.00,0.000000,,2013-06-01 10:02:00,
2013-06-01 03:12:00,50.0,39.0,-100.00,NNE,33,6.0,7.0,65,0.00,,,0.00,0.000000,,2013-06-01 10:12:00,
2013-06-01 03:22:00,50.0,39.0,-100.00,NNE,33,6.0,7.0,65,0.00,,,0.00,0.000000,,2013-06-01 10:22:00,
2013-06-01 03:52:00,48.0,38.0,-100.00,NNE,33,4.0,6.0,68,0.00,,,0.00,0.000000,,2013-06-01 10:52:00,
2013-06-01 04:02:00,48.0,38.0,-100.00,NNE,33,4.0,6.0,68,0.00,,,0.00,0.000000,,2013-06-01 11:02:00,
2013-06-01 04:11:00,48.0,38.0,-100.00,NNE,33,4.0,6.0,68,0.00,,,0.00,0.000000,,2013-06-01 11:11:00,
2013-06-01 04:21:00,48.0,38.0,-100.00,NNE,33,4.0,6.0,68,0.00,,,0.00,0.000000,,2013-06-01 11:21:00,
2013-06-01 04:52:00,48.0,40.0,-100.00,East,86,0.0,4.0,75,0.00,,,0.00,0.000000,,2013-06-01 11:52:00,
2013-06-01 05:01:00,48.0,40.0,-100.00,East,86,0.0,4.0,75,0.00,,,0.00,0.000000,,2013-06-01 12:01:00,
2013-06-01 05:12:00,48.0,40.0,-100.00,East,86,0.0,4.0,75,0.00,,,0.00,0.000000,,2013-06-01 12:12:00,
2013-06-01 05:21:00,48.0,40.0,-100.00,East,86,0.0,4.0,75,0.00,,,0.00,0.000000,,2013-06-01 12:21:00,
2013-06-01 05:52:00,48.0,40.0,-100.00,ESE,113,0.0,4.0,75,0.00,,,-99.99,2.000000,,2013-06-01 12:52:00,
2013-06-01 06:01:00,48.0,40.0,-100.00,ESE,113,0.0,4.0,75,0.00,,,-99.99,2.000000,,2013-06-01 13:01:00,
2013-06-01 06:11:00,48.0,40.0,-100.00,ESE,113,0.0,4.0,75,0.00,,,-99.99,2.000000,,2013-06-01 13:11:00,
2013-06-01 06:22:00,48.0,40.0,-100.00,ESE,113,0.0,4.0,75,0.00,,,-99.99,2.000000,,2013-06-01 13:22:00,
2013-06-01 06:52:00,50.0,42.0,-100.00,NE,36,0.0,3.0,75,0.00,,,0.00,42.000000,,2013-06-01 13:52:00,
2013-06-01 07:02:00,50.0,42.0,-100.00,NE,36,0.0,3.0,75,0.00,,,0.00,42.000000,,2013-06-01 14:02:00,
2013-06-01 07:11:00,50.0,42.0,-100.00,NE,36,0.0,3.0,75,0.00,,,0.00,42.000000,,2013-06-01 14:11:00,
2013-06-01 07:21:00,50.0,42.0,-100.00,NE,36,0.0,3.0,75,0.00,,,0.00,42.000000,,2013-06-01 14:21:00,
2013-06-01 07:52:00,54.0,44.0,-100.00,ENE,66,3.0,5.0,70,0.00,,,0.00,155.000000,,2013-06-01 14:52:00,
2013-06-01 08:01:00,54.0,44.0,-100.00,ENE,66,3.0,5.0,70,0.00,,,0.00,155.000000,,2013-06-01 15:01:00,
2013-06-01 08:11:00,54.0,44.0,-100.00,ENE,66,3.0,5.0,70,0.00,,,0.00,155.000000,,2013-06-01 15:11:00,
2013-06-01 08:21:00,54.0,44.0,-100.00,ENE,66,3.0,5.0,70,0.00,,,0.00,155.000000,,2013-06-01 15:21:00,
2013-06-01 08:53:00,61.0,42.0,-100.00,SE,130,4.0,7.0,50,0.00,,,0.00,468.000000,,2013-06-01 15:53:00,
2013-06-01 09:03:00,61.0,42.0,-100.00,SE,130,4.0,7.0,50,0.00,,,0.00,468.000000,,2013-06-01 16:03:00,
2013-06-01 09:12:00,61.0,42.0,-100.00,SE,130,4.0,7.0,50,0.00,,,0.00,468.000000,,2013-06-01 16:12:00,
2013-06-01 09:23:00,61.0,42.0,-100.00,SE,130,4.0,7.0,50,0.00,,,0.00,468.000000,,2013-06-01 16:23:00,
2013-06-01 09:52:00,63.0,42.0,-100.00,NNW,331,3.0,6.0,47,0.00,,,0.00,521.000000,,2013-06-01 16:52:00,
2013-06-01 10:02:00,63.0,42.0,-100.00,NNW,331,3.0,6.0,47,0.00,,,0.00,521.000000,,2013-06-01 17:02:00,
2013-06-01 10:11:00,63.0,42.0,-100.00,NNW,331,3.0,6.0,47,0.00,,,0.00,521.000000,,2013-06-01 17:11:00,
2013-06-01 10:22:00,63.0,42.0,-100.00,NNW,331,3.0,6.0,47,0.00,,,0.00,521.000000,,2013-06-01 17:22:00,
2013-06-01 10:52:00,67.0,42.0,-100.00,SSE,160,5.0,7.0,40,0.00,,,0.00,677.000000,,2013-06-01 17:52:00,
2013-06-01 11:01:00,67.0,42.0,-100.00,SSE,160,5.0,7.0,40,0.00,,,0.00,677.000000,,2013-06-01 18:01:00,
2013-06-01 11:12:00,67.0,42.0,-100.00,SSE,160,5.0,7.0,40,0.00,,,0.00,677.000000,,2013-06-01 18:12:00,
2013-06-01 11:21:00,67.0,42.0,-100.00,SSE,160,5.0,7.0,40,0.00,,,0.00,677.000000,,2013-06-01 18:21:00,
2013-06-01 11:52:00,69.0,41.0,-100.00,SSW,192,4.0,8.0,36,0.00,,,0.00,590.000000,,2013-06-01 18:52:00,
2013-06-01 12:01:00,69.0,41.0,-100.00,SSW,192,4.0,8.0,36,0.00,,,0.00,590.000000,,2013-06-01 19:01:00,
2013-06-01 12:11:00,69.0,41.0,-100.00,SSW,192,4.0,8.0,36,0.00,,,0.00,590.000000,,2013-06-01 19:11:00,
2013-06-01 12:21:00,69.0,41.0,-100.00,SSW,192,4.0,8.0,36,0.00,,,0.00,590.000000,,2013-06-01 19:21:00,
2013-06-01 12:52:00,72.0,41.0,-100.00,SSW,193,6.0,10.0,32,0.00,,,0.00,768.000000,,2013-06-01 19:52:00,
2013-06-01 13:01:00,72.0,41.0,-100.00,SSW,193,6.0,10.0,32,0.00,,,0.00,768.000000,,2013-06-01 20:01:00,
2013-06-01 13:11:00,72.0,41.0,-100.00,SSW,193,6.0,10.0,32,0.00,,,0.00,768.000000,,2013-06-01 20:11:00,
2013-06-01 13:21:00,72.0,41.0,-100.00,SSW,193,6.0,10.0,32,0.00,,,0.00,768.000000,,2013-06-01 20:21:00,
2013-06-01 13:52:00,73.0,37.0,-100.00,WSW,240,5.0,12.0,27,0.00,,,0.00,811.000000,,2013-06-01 20:52:00,
2013-06-01 14:01:00,73.0,37.0,-100.00,WSW,240,5.0,12.0,27,0.00,,,0.00,811.000000,,2013-06-01 21:01:00,
2013-06-01 14:11:00,73.0,37.0,-100.00,WSW,240,5.0,12.0,27,0.00,,,0.00,811.000000,,2013-06-01 21:11:00,
2013-06-01 14:21:00,73.0,37.0,-100.00,WSW,240,5.0,12.0,27,0.00,,,0.00,811.000000,,2013-06-01 21:21:00,
2013-06-01 14:53:00,73.0,36.0,-100.00,WSW,244,8.0,13.0,26,0.00,,,0.00,449.000000,,2013-06-01 21:53:00,
2013-06-01 15:03:00,73.0,36.0,-100.00,WSW,244,8.0,13.0,26,0.00,,,0.00,449.000000,,2013-06-01 22:03:00,
2013-06-01 15:12:00,73.0,36.0,-100.00,WSW,244,8.0,13.0,26,0.00,,,0.00,449.000000,,2013-06-01 22:12:00,
2013-06-01 15:23:00,73.0,36.0,-100.00,WSW,244,8.0,13.0,26,0.00,,,0.00,449.000000,,2013-06-01 22:23:00,
2013-06-01 15:53:00,76.0,39.0,-100.00,SSW,203,7.0,14.0,26,0.00,,,0.00,567.000000,,2013-06-01 22:53:00,
2013-06-01 16:02:00,76.0,39.0,-100.00,SSW,203,7.0,14.0,26,0.00,,,0.00,567.000000,,2013-06-01 23:02:00,
2013-06-01 16:11:00,76.0,39.0,-100.00,SSW,203,7.0,14.0,26,0.00,,,0.00,567.000000,,2013-06-01 23:11:00,
2013-06-01 16:21:00,76.0,39.0,-100.00,SSW,203,7.0,14.0,26,0.00,,,0.00,567.000000,,2013-06-01 23:21:00,
2013-06-01 16:52:00,75.0,41.0,-100.00,SE,135,6.0,13.0,29,0.00,,,0.00,661.000000,,2013-06-01 23:52:00,
2013-06-01 17:02:00,75.0,41.0,-100.00,SE,135,6.0,13.0,29,0.00,,,0.00,661.000000,,2013-06-02 00:02:00,
2013-06-01 17:11:00,75.0,41.0,-100.00,SE,135,6.0,13.0,29,0.00,,,0.00,661.000000,,2013-06-02 00:11:00,
2013-06-01 17:21:00,75.0,41.0,-100.00,SE,135,6.0,13.0,29,0.00,,,0.00,661.000000,,2013-06-02 00:21:00,
2013-06-01 17:52:00,78.0,40.0,-100.00,SSE,159,4.0,12.0,26,0.00,,,0.00,478.000000,,2013-06-02 00:52:00,
2013-06-01 18:01:00,78.0,40.0,-100.00,SSE,159,4.0,12.0,26,0.00,,,0.00,478.000000,,2013-06-02 01:01:00,
2013-06-01 18:11:00,78.0,40.0,-100.00,SSE,159,4.0,12.0,26,0.00,,,0.00,478.000000,,2013-06-02 01:11:00,
2013-06-01 18:21:00,78.0,40.0,-100.00,SSE,159,4.0,12.0,26,0.00,,,0.00,478.000000,,2013-06-02 01:21:00,
2013-06-01 18:52:00,76.0,40.0,-100.00,SSE,150,5.0,12.0,27,0.00,,,0.00,448.000000,,2013-06-02 01:52:00,
2013-06-01 19:01:00,76.0,40.0,-100.00,SSE,150,5.0,12.0,27,0.00,,,0.00,448.000000,,2013-06-02 02:01:00,
2013-06-01 19:12:00,76.0,40.0,-100.00,SSE,150,5.0,12.0,27,0.00,,,0.00,448.000000,,2013-06-02 02:12:00,
2013-06-01 19:21:00,76.0,40.0,-100.00,SSE,150,5.0,12.0,27,0.00,,,0.00,448.000000,,2013-06-02 02:21:00,
2013-06-01 19:52:00,74.0,41.0,-100.00,ESE,119,8.0,12.0,30,0.00,,,0.00,253.000000,,2013-06-02 02:52:00,
2013-06-01 20:02:00,74.0,41.0,-100.00,ESE,119,8.0,12.0,30,0.00,,,0.00,253.000000,,2013-06-02 03:02:00,
2013-06-01 20:11:00,74.0,41.0,-100.00,ESE,119,8.0,12.0,30,0.00,,,0.00,253.000000,,2013-06-02 03:11:00,
2013-06-01 20:21:00,74.0,41.0,-100.00,ESE,119,8.0,12.0,30,0.00,,,0.00,253.000000,,2013-06-02 03:21:00,
2013-06-01 20:53:00,66.0,41.0,-100.00,ENE,58,3.0,10.0,40,0.00,,,0.00,58.000000,,2013-06-02 03:53:00,
2013-06-01 21:02:00,66.0,41.0,-100.00,ENE,58,3.0,10.0,40,0.00,,,0.00,58.000000,,2013-06-02 04:02:00,
2013-06-01 21:13:00,66.0,41.0,-100.00,ENE,58,3.0,10.0,40,0.00,,,0.00,58.000000,,2013-06-02 04:13:00,
2013-06-01 21:23:00,66.0,41.0,-100.00,ENE,58,3.0,10.0,40,0.00,,,0.00,58.000000,,2013-06-02 04:23:00,
2013-06-01 21:53:00,65.0,43.0,-100.00,West,271,8.0,11.0,45,0.00,,,0.00,3.000000,,2013-06-02 04:53:00,
2013-06-01 22:02:00,65.0,43.0,-100.00,West,271,8.0,11.0,45,0.00,,,0.00,3.000000,,2013-06-02 05:02:00,
2013-06-01 22:11:00,65.0,43.0,-100.00,West,271,8.0,11.0,45,0.00,,,0.00,3.000000,,2013-06-02 05:11:00,
2013-06-01 22:22:00,65.0,43.0,-100.00,West,271,8.0,11.0,45,0.00,,,0.00,3.000000,,2013-06-02 05:22:00,
2013-06-01 22:52:00,62.0,44.0,-100.00,WNW,290,13.0,18.0,51,0.00,,,0.00,0.000000,,2013-06-02 05:52:00,
2013-06-01 23:01:00,62.0,44.0,-100.00,WNW,290,13.0,18.0,51,0.00,,,0.00,0.000000,,2013-06-02 06:01:00,
2013-06-01 23:12:00,62.0,44.0,-100.00,WNW,290,13.0,18.0,51,0.00,,,0.00,0.000000,,2013-06-02 06:12:00,
2013-06-01 23:21:00,62.0,44.0,-100.00,WNW,290,13.0,18.0,51,0.00,,,0.00,0.000000,,2013-06-02 06:21:00,
2013-06-01 23:52:00,58.0,43.0,-100.00,NW,304,11.0,17.0,58,0.00,,,0.00,0.000000,,2013-06-02 06:52:00,